createdAt,value
2019-01-31T00:02:14.958Z,12.13
2019-01-31T00:04:49.366Z,14.83
2019-01-31T00:11:21.905Z,9.10
2019-01-31T00:14:15.709Z,12.40
2019-01-31T00:17:06.327Z,10.20
2019-01-31T00:19:43.773Z,7.90
2019-01-31T00:22:39.621Z,8.67
2019-01-31T00:25:19.033Z,11.17
2019-01-31T00:28:05.378Z,7.93
2019-01-31T00:30:45.774Z,9.27
2019-01-31T00:33:38.079Z,10.50
2019-01-31T00:36:24.483Z,10.93
2019-01-31T00:39:01.768Z,13.63
2019-01-31T00:41:42.047Z,8.80
2019-01-31T00:44:31.888Z,12.60
2019-01-31T00:47:06.013Z,10.77
2019-01-31T00:49:48.869Z,13.70
2019-01-31T00:52:20.327Z,13.53
2019-01-31T00:55:03.516Z,9.87
2019-01-31T00:57:49.807Z,10.87
2019-01-31T01:00:26.995Z,12.90
2019-01-31T01:02:58.508Z,14.70
2019-01-31T01:06:01.671Z,9.67
2019-01-31T01:08:38.641Z,13.60
2019-01-31T01:11:24.951Z,11.13
2019-01-31T01:14:02.417Z,9.40
2019-01-31T01:16:33.869Z,8.97
2019-01-31T01:19:17.221Z,9.10
2019-01-31T01:22:11.445Z,11.27
2019-01-31T01:25:40.687Z,9.03
2019-01-31T01:28:34.422Z,11.13
2019-01-31T01:31:20.824Z,13.40
2019-01-31T01:33:57.583Z,11.30
2019-01-31T01:36:35.216Z,8.83
2019-01-31T01:39:19.554Z,12.60
2019-01-31T01:42:02.833Z,12.23
2019-01-31T01:44:43.574Z,13.40
2019-01-31T01:47:15.053Z,10.57
2019-01-31T01:50:09.486Z,7.63
2019-01-31T01:52:40.956Z,9.03
2019-01-31T01:55:27.589Z,10.37
2019-01-31T01:57:59.065Z,13.13
2019-01-31T02:00:30.548Z,11.97
2019-01-31T02:03:10.932Z,11.30
2019-01-31T02:05:51.527Z,11.07
2019-01-31T02:08:53.305Z,9.40
2019-01-31T02:11:46.005Z,12.60
2019-01-31T02:14:35.151Z,8.97
2019-01-31T02:17:18.857Z,14.77
2019-01-31T02:20:11.459Z,12.43
2019-01-31T02:22:59.281Z,11.07
2019-01-31T02:25:39.394Z,10.50
2019-01-31T02:28:45.527Z,9.67
2019-01-31T02:31:20.075Z,11.00
2019-01-31T02:34:06.585Z,14.50
2019-01-31T02:36:49.577Z,6.33
2019-01-31T02:39:43.680Z,8.53
2019-01-31T02:42:24.795Z,9.60
2019-01-31T02:44:58.991Z,16.27
2019-01-31T02:47:57.905Z,11.30
2019-01-31T02:50:45.688Z,12.60
2019-01-31T02:53:19.869Z,8.53
2019-01-31T02:56:01.597Z,8.27
2019-01-31T02:58:47.945Z,9.80
2019-01-31T03:01:37.019Z,7.80
2019-01-31T03:04:23.125Z,7.57
2019-01-31T03:06:57.509Z,9.37
2019-01-31T03:10:21.253Z,12.37
2019-01-31T03:13:01.608Z,9.97
2019-01-31T03:15:49.958Z,13.90
2019-01-31T03:18:30.275Z,11.23
2019-01-31T03:21:13.324Z,10.50
2019-01-31T03:23:54.196Z,11.17
2019-01-31T03:26:44.016Z,12.97
2019-01-31T03:29:39.733Z,11.37
2019-01-31T03:32:26.279Z,8.77
2019-01-31T03:35:06.781Z,10.20
2019-01-31T03:37:41.088Z,8.73
2019-01-31T03:40:18.750Z,10.63
2019-01-31T03:43:11.469Z,10.90
2019-01-31T03:45:59.785Z,9.07
2019-01-31T03:48:50.724Z,15.67
2019-01-31T03:51:31.138Z,11.13
2019-01-31T03:54:14.388Z,15.63
2019-01-31T03:56:57.099Z,9.07
2019-01-31T03:59:28.783Z,11.73
2019-01-31T04:02:06.388Z,11.10
2019-01-31T04:04:44.011Z,11.80
2019-01-31T04:07:12.422Z,13.70
2019-01-31T04:09:40.860Z,10.20
2019-01-31T04:12:09.304Z,10.03
2019-01-31T04:14:37.700Z,13.43
2019-01-31T04:17:06.307Z,11.33
2019-01-31T04:19:34.740Z,13.60
2019-01-31T04:22:03.145Z,9.63
2019-01-31T04:24:31.596Z,10.10
2019-01-31T04:27:01.292Z,16.27
2019-01-31T04:29:29.716Z,9.67
2019-01-31T04:31:58.122Z,10.63
2019-01-31T04:34:26.539Z,9.27
2019-01-31T04:36:56.041Z,13.20
2019-01-31T04:39:24.485Z,9.07
2019-01-31T04:41:52.887Z,9.50
2019-01-31T04:44:21.503Z,7.77
2019-01-31T04:46:49.937Z,16.00
2019-01-31T04:49:18.371Z,13.97
2019-01-31T04:51:46.810Z,11.67
2019-01-31T04:54:15.249Z,12.13
2019-01-31T04:56:43.686Z,8.77
2019-01-31T04:59:12.132Z,10.27
2019-01-31T05:01:40.651Z,9.43
2019-01-31T05:04:09.109Z,7.40
2019-01-31T05:06:37.527Z,8.97
2019-01-31T05:09:07.520Z,8.70
2019-01-31T05:11:35.921Z,12.07
2019-01-31T05:14:05.494Z,11.67
2019-01-31T05:16:35.212Z,11.63
2019-01-31T05:19:03.662Z,9.93
2019-01-31T05:21:32.074Z,8.23
2019-01-31T05:24:00.560Z,10.90
2019-01-31T05:26:28.980Z,10.73
2019-01-31T05:28:57.449Z,12.23
2019-01-31T05:31:26.922Z,12.63
2019-01-31T05:33:55.326Z,11.87
2019-01-31T05:36:23.798Z,11.83
2019-01-31T05:40:02.237Z,12.07
2019-01-31T05:42:30.683Z,8.33
2019-01-31T05:44:59.078Z,10.17
2019-01-31T05:47:27.464Z,9.33
2019-01-31T05:49:55.900Z,10.93
2019-01-31T05:52:24.282Z,10.03
2019-01-31T05:58:33.507Z,8.30
2019-01-31T06:01:01.907Z,10.13
2019-01-31T06:03:30.495Z,9.57
2019-01-31T06:05:58.890Z,8.93
2019-01-31T06:08:27.359Z,8.43
2019-01-31T06:11:06.889Z,8.33
2019-01-31T06:13:26.041Z,8.33
2019-01-31T06:15:54.512Z,8.83
2019-01-31T06:18:22.958Z,6.90
2019-01-31T06:20:51.361Z,8.23
2019-01-31T06:23:21.267Z,8.20
2019-01-31T06:29:30.296Z,8.03
2019-01-31T06:31:58.750Z,7.97
2019-01-31T06:34:27.164Z,5.47
2019-01-31T06:36:55.607Z,11.40
2019-01-31T06:39:24.023Z,6.97
2019-01-31T06:41:52.429Z,10.63
2019-01-31T06:44:20.884Z,7.37
2019-01-31T06:46:49.290Z,8.90
2019-01-31T06:49:17.749Z,14.47
2019-01-31T06:51:46.134Z,9.90
2019-01-31T06:54:14.525Z,9.33
2019-01-31T06:56:42.952Z,8.50
2019-01-31T06:59:11.369Z,7.40
2019-01-31T07:01:40.093Z,13.07
2019-01-31T07:04:11.037Z,9.97
2019-01-31T07:06:38.632Z,13.47
2019-01-31T07:09:37.528Z,11.87
2019-01-31T07:12:05.919Z,12.07
2019-01-31T07:14:34.343Z,8.70
2019-01-31T07:17:02.784Z,9.90
2019-01-31T07:19:31.224Z,9.27
2019-01-31T07:21:59.632Z,8.23
2019-01-31T07:24:28.084Z,10.67
2019-01-31T07:26:56.502Z,10.47
2019-01-31T07:29:24.984Z,17.20
2019-01-31T07:31:53.433Z,11.30
2019-01-31T07:34:21.838Z,13.63
2019-01-31T07:36:50.339Z,15.23
2019-01-31T07:39:18.793Z,14.10
2019-01-31T07:41:47.258Z,15.47
2019-01-31T07:44:15.732Z,16.70
2019-01-31T07:46:44.214Z,13.23
2019-01-31T07:49:12.616Z,9.43
2019-01-31T07:51:41.222Z,10.33
2019-01-31T07:54:24.998Z,13.93
2019-01-31T07:56:53.436Z,10.20
2019-01-31T07:59:21.960Z,11.17
2019-01-31T08:01:50.380Z,15.10
2019-01-31T08:04:18.818Z,10.83
2019-01-31T08:06:47.265Z,14.10
2019-01-31T08:09:15.709Z,20.07
2019-01-31T08:11:52.269Z,13.13
2019-01-31T08:14:14.311Z,18.70
2019-01-31T08:16:42.740Z,15.20
2019-01-31T08:19:11.175Z,11.87
2019-01-31T08:21:41.138Z,11.97
2019-01-31T08:24:27.692Z,12.00
2019-01-31T08:26:56.135Z,12.80
2019-01-31T08:29:24.548Z,13.27
2019-01-31T08:31:52.944Z,12.00
2019-01-31T08:34:21.359Z,10.20
2019-01-31T08:36:49.810Z,13.30
2019-01-31T08:40:28.088Z,9.47
2019-01-31T08:42:56.488Z,11.23
2019-01-31T08:45:25.070Z,9.93
2019-01-31T08:47:53.511Z,13.23
2019-01-31T08:50:29.953Z,14.07
2019-01-31T08:52:58.373Z,13.43
2019-01-31T08:56:21.837Z,20.43
2019-01-31T08:58:50.232Z,15.90
2019-01-31T09:01:18.672Z,19.53
2019-01-31T09:03:47.064Z,20.80
2019-01-31T09:06:15.489Z,18.67
2019-01-31T09:08:43.928Z,15.43
2019-01-31T09:11:12.349Z,13.30
2019-01-31T09:13:40.779Z,13.03
2019-01-31T09:16:09.210Z,15.57
2019-01-31T09:18:37.632Z,16.23
2019-01-31T09:21:14.670Z,12.07
2019-01-31T09:23:46.160Z,9.03
2019-01-31T09:26:38.319Z,11.17
2019-01-31T09:29:33.393Z,15.33
2019-01-31T09:32:07.699Z,8.80
2019-01-31T09:34:44.971Z,9.43
2019-01-31T09:37:41.903Z,9.33
2019-01-31T09:40:40.568Z,7.97
2019-01-31T09:43:31.713Z,6.67
2019-01-31T09:46:18.098Z,13.60
2019-01-31T09:49:01.587Z,9.30
2019-01-31T09:51:41.954Z,15.33
2019-01-31T09:54:16.303Z,12.33
2019-01-31T09:57:07.469Z,10.53
2019-01-31T09:59:41.715Z,10.20
2019-01-31T10:02:45.625Z,14.80
2019-01-31T10:05:35.480Z,9.67
2019-01-31T10:08:38.402Z,11.67
2019-01-31T10:11:32.395Z,11.10
2019-01-31T10:14:18.777Z,11.07
2019-01-31T10:16:59.364Z,12.67
2019-01-31T10:19:42.670Z,12.93
2019-01-31T10:22:35.242Z,13.90
2019-01-31T10:25:09.319Z,18.30
2019-01-31T10:27:41.913Z,12.10
2019-01-31T10:30:42.032Z,14.90
2019-01-31T10:33:17.527Z,16.03
2019-01-31T10:35:58.084Z,17.93
2019-01-31T10:38:35.295Z,15.67
2019-01-31T10:41:06.768Z,21.90
2019-01-31T10:43:38.467Z,17.17
2019-01-31T10:46:34.158Z,16.40
2019-01-31T10:49:42.249Z,16.53
2019-01-31T10:52:19.463Z,16.17
2019-01-31T10:55:15.393Z,16.20
2019-01-31T10:58:02.135Z,16.03
2019-01-31T11:01:01.218Z,16.37
2019-01-31T11:03:41.441Z,13.90
2019-01-31T11:06:15.930Z,14.80
2019-01-31T11:08:50.203Z,14.43
2019-01-31T11:11:24.463Z,16.30
2019-01-31T11:13:55.971Z,17.20
2019-01-31T11:16:36.395Z,15.83
2019-01-31T11:19:22.411Z,14.23
2019-01-31T11:22:07.234Z,15.37
2019-01-31T11:24:38.725Z,13.27
2019-01-31T11:27:19.855Z,12.87
2019-01-31T11:30:00.097Z,20.80
2019-01-31T11:32:43.824Z,20.77
2019-01-31T11:35:27.180Z,17.53
2019-01-31T11:38:16.687Z,19.00
2019-01-31T11:41:09.090Z,14.10
2019-01-31T11:43:48.827Z,16.30
2019-01-31T11:46:40.226Z,15.43
2019-01-31T11:49:30.750Z,22.30
2019-01-31T11:52:10.496Z,18.00
2019-01-31T11:55:36.767Z,17.53
2019-01-31T11:58:30.793Z,18.33
2019-01-31T12:00:59.271Z,18.17
2019-01-31T12:03:29.378Z,20.23
2019-01-31T12:05:57.833Z,18.10
2019-01-31T12:08:26.239Z,14.97
2019-01-31T12:11:12.617Z,19.63
2019-01-31T12:13:41.039Z,16.13
2019-01-31T12:16:09.635Z,17.87
2019-01-31T12:18:38.040Z,22.27
2019-01-31T12:21:06.474Z,22.70
2019-01-31T12:23:35.005Z,16.13
2019-01-31T12:29:44.246Z,18.10
2019-01-31T12:32:12.690Z,19.57
2019-01-31T12:34:43.124Z,14.30
2019-01-31T12:37:11.361Z,15.93
2019-01-31T12:39:39.804Z,16.80
2019-01-31T12:42:08.319Z,17.37
2019-01-31T12:44:36.741Z,18.20
2019-01-31T12:47:05.242Z,14.67
2019-01-31T12:49:33.670Z,13.73
2019-01-31T12:52:04.172Z,14.20
2019-01-31T12:54:32.246Z,15.63
2019-01-31T12:57:00.674Z,13.27
2019-01-31T12:59:31.058Z,27.47
2019-01-31T13:01:59.554Z,13.37
2019-01-31T13:04:28.268Z,13.27
2019-01-31T13:06:58.386Z,17.40
2019-01-31T13:09:28.368Z,14.47
2019-01-31T13:11:56.938Z,14.27
2019-01-31T13:14:28.338Z,12.87
2019-01-31T13:16:55.567Z,12.57
2019-01-31T13:19:24.006Z,13.90
2019-01-31T13:21:52.541Z,11.00
2019-01-31T13:24:20.941Z,11.20
2019-01-31T13:26:49.442Z,15.43
2019-01-31T13:29:17.972Z,10.90
2019-01-31T13:31:47.950Z,12.27
2019-01-31T13:34:16.381Z,12.60
2019-01-31T13:36:44.813Z,10.90
2019-01-31T13:39:13.900Z,11.87
2019-01-31T13:41:42.443Z,10.10
2019-01-31T13:44:10.918Z,11.43
2019-01-31T13:46:39.328Z,11.97
2019-01-31T13:49:08.007Z,11.50
2019-01-31T13:51:36.517Z,10.87
2019-01-31T13:54:06.088Z,14.57
2019-01-31T13:56:44.970Z,15.83
2019-01-31T13:59:04.857Z,14.17
2019-01-31T14:01:33.472Z,16.07
2019-01-31T14:04:01.893Z,11.50
2019-01-31T14:06:30.372Z,10.40
2019-01-31T14:08:58.872Z,9.57
2019-01-31T14:11:27.298Z,9.37
2019-01-31T14:13:55.680Z,7.93
2019-01-31T14:16:24.191Z,6.73
2019-01-31T14:18:53.481Z,7.87
2019-01-31T14:21:21.976Z,7.87
2019-01-31T14:23:50.497Z,4.60
2019-01-31T14:26:20.501Z,3.80
2019-01-31T14:28:48.907Z,5.40
2019-01-31T14:31:17.336Z,4.73
2019-01-31T14:33:45.778Z,5.73
2019-01-31T14:36:14.268Z,4.03
2019-01-31T14:38:42.801Z,3.37
2019-01-31T14:41:11.259Z,5.57
2019-01-31T14:43:39.657Z,7.23
2019-01-31T14:46:08.120Z,5.53
2019-01-31T14:48:36.546Z,3.67
2019-01-31T14:51:05.056Z,2.17
2019-01-31T14:53:33.504Z,2.23
2019-01-31T14:56:19.918Z,2.53
2019-01-31T14:58:48.326Z,2.27
2019-01-31T15:01:18.322Z,2.57
2019-01-31T15:03:46.722Z,4.63
2019-01-31T15:06:15.140Z,3.00
2019-01-31T15:08:43.582Z,2.83
2019-01-31T15:11:11.990Z,2.63
2019-01-31T15:13:40.415Z,3.17
2019-01-31T15:16:09.510Z,5.13
2019-01-31T15:18:37.995Z,4.07
2019-01-31T15:21:06.396Z,2.30
2019-01-31T15:23:34.849Z,2.33
2019-01-31T15:26:03.284Z,2.93
2019-01-31T15:28:31.726Z,2.07
2019-01-31T15:31:00.181Z,3.50
2019-01-31T15:33:28.599Z,2.77
2019-01-31T15:35:57.006Z,3.30
2019-01-31T15:38:25.454Z,3.50
2019-01-31T15:40:54.128Z,2.27
2019-01-31T15:43:22.564Z,2.60
2019-01-31T15:45:50.968Z,2.53
2019-01-31T15:48:19.720Z,1.90
2019-01-31T15:50:48.135Z,1.80
2019-01-31T15:53:16.546Z,1.80
2019-01-31T15:55:45.132Z,2.77
2019-01-31T15:58:13.791Z,3.27
2019-01-31T16:00:45.456Z,4.73
2019-01-31T16:03:16.205Z,4.13
2019-01-31T16:05:44.712Z,3.77
2019-01-31T16:08:13.467Z,4.90
2019-01-31T16:10:42.279Z,7.20
2019-01-31T16:13:10.715Z,3.43
2019-01-31T16:15:40.112Z,4.97
2019-01-31T16:18:10.254Z,7.13
2019-01-31T16:20:38.816Z,7.90
2019-01-31T16:23:07.766Z,4.53
2019-01-31T16:25:39.059Z,6.57
2019-01-31T16:28:08.028Z,6.83
2019-01-31T16:30:36.621Z,8.30
2019-01-31T16:33:05.777Z,8.43
2019-01-31T16:35:34.436Z,7.23
2019-01-31T16:38:03.070Z,7.97
2019-01-31T16:40:31.568Z,7.20
2019-01-31T16:43:00.129Z,9.37
2019-01-31T16:45:28.768Z,7.20
2019-01-31T16:47:57.193Z,7.17
2019-01-31T16:50:26.520Z,7.27
2019-01-31T16:52:55.030Z,8.33
2019-01-31T16:55:30.491Z,10.17
2019-01-31T16:57:59.357Z,11.93
2019-01-31T17:00:34.796Z,10.37
2019-01-31T17:03:05.188Z,8.57
2019-01-31T17:05:33.789Z,10.47
2019-01-31T17:08:02.301Z,8.67
2019-01-31T17:14:30.526Z,9.27
2019-01-31T17:16:59.079Z,10.33
2019-01-31T17:19:27.491Z,10.67
2019-01-31T17:21:55.970Z,10.97
2019-01-31T17:24:24.444Z,11.60
2019-01-31T17:30:34.474Z,10.53
2019-01-31T17:33:02.979Z,11.40
2019-01-31T17:35:31.425Z,12.40
2019-01-31T17:37:59.917Z,12.07
2019-01-31T17:40:31.687Z,11.20
2019-01-31T17:43:01.069Z,8.37
2019-01-31T17:45:30.977Z,9.93
2019-01-31T17:48:00.958Z,8.30
2019-01-31T17:50:32.155Z,9.60
2019-01-31T17:53:01.586Z,10.00
2019-01-31T17:55:30.901Z,11.83
2019-01-31T17:58:00.239Z,11.40
2019-01-31T18:00:37.760Z,12.43
2019-01-31T18:03:08.325Z,13.57
2019-01-31T18:05:37.573Z,12.47
2019-01-31T18:08:09.195Z,11.97
2019-01-31T18:17:05.217Z,11.17
2019-01-31T18:19:34.186Z,11.70
2019-01-31T18:22:02.795Z,14.67
2019-01-31T18:24:32.461Z,11.77
2019-01-31T18:30:45.086Z,12.57
2019-01-31T18:33:13.784Z,14.97
2019-01-31T18:35:42.464Z,14.67
2019-01-31T18:38:11.095Z,13.13
2019-01-31T18:40:39.776Z,14.67
2019-01-31T18:43:08.391Z,14.30
2019-01-31T18:45:40.419Z,10.20
2019-01-31T18:48:09.129Z,12.70
2019-01-31T18:50:42.769Z,12.27
2019-01-31T18:53:12.857Z,12.53
2019-01-31T18:55:42.294Z,10.27
2019-01-31T18:58:11.011Z,10.53
2019-01-31T19:00:43.603Z,12.97
2019-01-31T19:03:13.103Z,13.70
2019-01-31T19:05:44.465Z,13.27
2019-01-31T19:08:14.594Z,11.67
2019-01-31T19:10:44.716Z,12.50
2019-01-31T19:13:13.815Z,11.20
2019-01-31T19:15:42.504Z,12.17
2019-01-31T19:18:13.920Z,12.37
2019-01-31T19:20:42.646Z,10.20
2019-01-31T19:23:13.626Z,15.67
2019-01-31T19:25:42.363Z,12.50
2019-01-31T19:28:13.117Z,17.17
2019-01-31T19:30:41.689Z,13.77
2019-01-31T19:33:10.603Z,17.73
2019-01-31T19:35:42.664Z,21.67
2019-01-31T19:38:12.876Z,13.53
2019-01-31T19:40:43.291Z,14.83
2019-01-31T19:43:12.204Z,19.43
2019-01-31T19:45:50.538Z,13.07
2019-01-31T19:48:20.779Z,10.20
2019-01-31T19:50:49.496Z,12.90
2019-01-31T19:53:19.818Z,13.83
2019-01-31T19:55:48.784Z,11.33
2019-01-31T19:58:18.623Z,12.43
2019-01-31T20:00:47.238Z,10.23
2019-01-31T20:03:16.417Z,9.70
2019-01-31T20:05:45.142Z,8.17
2019-01-31T20:08:13.844Z,11.07
2019-01-31T20:10:45.559Z,10.77
2019-01-31T20:13:15.852Z,12.07
2019-01-31T20:15:44.573Z,8.73
2019-01-31T20:18:14.816Z,10.53
2019-01-31T20:20:45.446Z,8.93
2019-01-31T20:23:15.618Z,10.57
2019-01-31T20:25:44.348Z,12.70
2019-01-31T20:28:14.976Z,8.67
2019-01-31T20:30:43.695Z,12.97
2019-01-31T20:33:12.492Z,9.13
2019-01-31T20:35:41.442Z,11.23
2019-01-31T20:38:12.653Z,10.20
2019-01-31T20:40:41.446Z,10.27
2019-01-31T20:43:13.229Z,10.20
2019-01-31T20:45:45.951Z,10.73
2019-01-31T20:48:14.721Z,8.67
2019-01-31T20:50:43.355Z,10.50
2019-01-31T20:53:11.843Z,9.37
2019-01-31T20:55:41.825Z,8.13
2019-01-31T20:58:10.485Z,8.83
2019-01-31T21:00:41.250Z,10.30
2019-01-31T21:03:10.487Z,10.77
2019-01-31T21:05:41.492Z,9.97
2019-01-31T21:08:11.554Z,11.73
2019-01-31T21:10:41.937Z,12.10
2019-01-31T21:13:11.287Z,11.47
2019-01-31T21:15:39.928Z,8.47
2019-01-31T21:18:09.966Z,9.53
2019-01-31T21:20:39.580Z,9.07
2019-01-31T21:23:10.439Z,11.57
2019-01-31T21:25:39.848Z,10.77
2019-01-31T21:28:11.625Z,8.87
2019-01-31T21:30:40.664Z,9.27
2019-01-31T21:33:10.842Z,9.47
2019-01-31T21:35:41.294Z,8.33
2019-01-31T21:38:11.644Z,9.40
2019-01-31T21:40:40.343Z,11.37
2019-01-31T21:43:09.014Z,8.30
2019-01-31T21:45:37.628Z,8.83
2019-01-31T21:48:06.656Z,7.27
2019-01-31T21:50:35.478Z,9.97
2019-01-31T21:53:04.425Z,6.77
2019-01-31T21:55:33.149Z,10.97
2019-01-31T21:58:08.225Z,7.13
2019-01-31T22:00:36.943Z,8.27
2019-01-31T22:03:06.406Z,9.60
2019-01-31T22:05:35.066Z,10.03
2019-01-31T22:08:03.640Z,7.87
2019-01-31T22:10:32.129Z,8.30
2019-01-31T22:13:02.693Z,7.27
2019-01-31T22:15:33.845Z,8.80
2019-01-31T22:18:02.448Z,13.47
2019-01-31T22:20:30.908Z,9.13
2019-01-31T22:22:59.343Z,6.60
2019-01-31T22:25:27.847Z,8.67
2019-01-31T22:27:56.290Z,7.33
2019-01-31T22:30:33.065Z,7.40
2019-01-31T22:33:01.827Z,6.53
2019-01-31T22:35:30.328Z,8.50
2019-01-31T22:37:58.745Z,5.57
2019-01-31T22:40:27.507Z,6.17
2019-01-31T22:42:55.913Z,6.50
2019-01-31T22:45:25.826Z,6.63
2019-01-31T22:47:54.268Z,5.63
2019-01-31T22:50:24.267Z,8.77
2019-01-31T22:52:52.812Z,8.17
2019-01-31T22:55:26.410Z,7.83
2019-01-31T22:57:54.899Z,8.07
2019-01-31T23:00:45.921Z,8.13
2019-01-31T23:03:14.457Z,9.60
2019-01-31T23:05:43.224Z,9.20
2019-01-31T23:08:11.646Z,7.13
2019-01-31T23:10:40.108Z,10.63
2019-01-31T23:13:08.548Z,7.77
2019-01-31T23:15:36.952Z,8.80
2019-01-31T23:18:06.403Z,8.87
2019-01-31T23:20:36.366Z,9.73
2019-01-31T23:23:04.827Z,8.93
2019-01-31T23:25:40.341Z,14.33
2019-01-31T23:28:03.398Z,9.53
2019-01-31T23:30:33.714Z,8.87
2019-01-31T23:33:02.121Z,8.13
2019-01-31T23:35:30.530Z,8.57
2019-01-31T23:37:58.981Z,7.10
2019-01-31T23:40:27.394Z,8.23
2019-01-31T23:42:55.816Z,7.67
2019-01-31T23:45:24.380Z,9.40
2019-01-31T23:47:52.781Z,7.30
2019-01-31T23:50:21.549Z,8.90
2019-01-31T23:52:49.937Z,7.70
2019-01-31T23:55:18.869Z,8.67
2019-01-31T23:57:47.293Z,8.83
